createdAt,value
2023-03-20T00:00:02.681Z,7.71
2023-03-20T00:02:48.769Z,7.90
2023-03-20T00:05:33.600Z,8.04
2023-03-20T00:08:18.061Z,7.95
2023-03-20T00:11:02.011Z,7.70
2023-03-20T00:13:47.660Z,7.58
2023-03-20T00:16:34.044Z,7.69
2023-03-20T00:19:19.670Z,8.07
2023-03-20T00:22:03.865Z,7.85
2023-03-20T00:24:47.870Z,8.11
2023-03-20T00:27:31.841Z,7.77
2023-03-20T00:30:28.478Z,8.08
2023-03-20T00:33:12.468Z,7.74
2023-03-20T00:35:56.635Z,7.95
2023-03-20T00:38:40.722Z,8.27
2023-03-20T00:41:28.348Z,8.17
2023-03-20T00:44:23.546Z,7.88
2023-03-20T00:47:18.126Z,7.82
2023-03-20T00:50:03.171Z,7.35
2023-03-20T00:52:47.998Z,7.76
2023-03-20T00:55:32.186Z,7.79
2023-03-20T00:58:16.149Z,7.57
2023-03-20T01:01:00.231Z,7.65
2023-03-20T01:03:45.882Z,7.69
2023-03-20T01:06:33.150Z,7.36
2023-03-20T01:09:17.246Z,7.74
2023-03-20T01:12:02.002Z,7.49
2023-03-20T01:14:47.526Z,7.58
2023-03-20T01:17:31.520Z,7.59
2023-03-20T01:20:25.774Z,7.47
2023-03-20T01:23:09.917Z,7.57
2023-03-20T01:25:54.061Z,7.29
2023-03-20T01:28:38.192Z,7.47
2023-03-20T01:31:22.087Z,7.37
2023-03-20T01:34:06.416Z,7.58
2023-03-20T01:36:54.285Z,6.86
2023-03-20T01:39:38.926Z,7.39
2023-03-20T01:42:23.252Z,7.11
2023-03-20T01:45:17.857Z,6.96
2023-03-20T01:48:02.056Z,7.13
2023-03-20T01:50:46.235Z,7.35
2023-03-20T01:53:34.390Z,7.01
2023-03-20T01:56:21.508Z,7.16
2023-03-20T01:59:12.027Z,7.04
2023-03-20T02:01:56.396Z,7.11
2023-03-20T02:04:46.371Z,7.41
2023-03-20T02:07:36.326Z,7.56
2023-03-20T02:10:24.422Z,7.51
2023-03-20T02:13:24.253Z,7.48
2023-03-20T02:16:12.567Z,7.49
2023-03-20T02:19:25.096Z,7.14
2023-03-20T02:22:27.302Z,7.56
2023-03-20T02:25:38.819Z,7.03
2023-03-20T02:28:57.708Z,6.84
2023-03-20T02:32:23.269Z,7.05
2023-03-20T02:35:28.118Z,7.31
2023-03-20T02:38:51.928Z,7.47
2023-03-20T02:41:43.915Z,7.17
2023-03-20T02:44:35.027Z,6.98
2023-03-20T02:47:26.920Z,7.03
2023-03-20T02:50:17.543Z,6.53
2023-03-20T02:53:12.963Z,6.87
2023-03-20T02:56:06.279Z,6.68
2023-03-20T02:58:59.631Z,6.51
2023-03-20T03:01:48.955Z,6.62
2023-03-20T03:04:37.501Z,6.53
2023-03-20T03:07:23.744Z,6.33
2023-03-20T03:10:12.884Z,6.64
2023-03-20T03:12:59.870Z,7.17
2023-03-20T03:15:49.393Z,6.17
2023-03-20T03:18:36.245Z,6.16
2023-03-20T03:21:22.678Z,6.59
2023-03-20T03:24:08.131Z,6.82
2023-03-20T03:26:53.792Z,6.76
2023-03-20T03:29:40.795Z,6.99
2023-03-20T03:32:30.781Z,6.90
2023-03-20T03:35:18.697Z,6.83
2023-03-20T03:38:06.857Z,7.08
2023-03-20T03:40:57.973Z,6.98
2023-03-20T03:43:48.447Z,7.04
2023-03-20T03:46:43.459Z,7.00
2023-03-20T03:49:34.423Z,6.91
2023-03-20T03:52:22.702Z,7.29
2023-03-20T03:55:11.906Z,6.88
2023-03-20T03:58:20.147Z,7.11
2023-03-20T04:01:06.669Z,6.68
2023-03-20T04:03:54.101Z,7.02
2023-03-20T04:06:39.994Z,7.18
2023-03-20T04:09:24.261Z,7.02
2023-03-20T04:12:30.103Z,7.21
2023-03-20T04:15:16.732Z,6.88
2023-03-20T04:18:01.190Z,6.96
2023-03-20T04:20:45.408Z,6.56
2023-03-20T04:23:30.854Z,6.78
2023-03-20T04:26:15.094Z,6.92
2023-03-20T04:28:58.916Z,6.73
2023-03-20T04:32:06.561Z,7.29
2023-03-20T04:35:12.039Z,7.32
2023-03-20T04:38:09.196Z,7.20
2023-03-20T04:40:54.915Z,7.25
2023-03-20T04:43:39.496Z,7.09
2023-03-20T04:46:24.145Z,7.02
2023-03-20T04:49:08.600Z,6.80
2023-03-20T04:51:53.018Z,7.48
2023-03-20T04:54:48.083Z,7.17
2023-03-20T04:57:33.700Z,6.95
2023-03-20T05:00:19.111Z,7.20
2023-03-20T05:03:03.234Z,6.99
2023-03-20T05:05:47.284Z,6.95
2023-03-20T05:08:31.594Z,7.16
2023-03-20T05:11:17.636Z,6.97
2023-03-20T05:14:23.557Z,6.67
2023-03-20T05:17:38.813Z,6.95
2023-03-20T05:20:32.568Z,7.19
2023-03-20T05:23:23.554Z,7.53
2023-03-20T05:26:30.464Z,7.64
2023-03-20T05:29:24.942Z,7.51
2023-03-20T05:32:32.714Z,7.45
2023-03-20T05:35:35.619Z,7.23
2023-03-20T05:38:35.412Z,7.37
2023-03-20T05:41:37.639Z,7.85
2023-03-20T05:44:43.161Z,8.11
2023-03-20T05:47:32.856Z,7.84
2023-03-20T05:50:55.525Z,7.48
2023-03-20T05:53:42.567Z,7.49
2023-03-20T05:56:52.740Z,7.85
2023-03-20T06:00:01.517Z,7.78
2023-03-20T06:02:57.849Z,8.21
2023-03-20T06:06:01.169Z,7.80
2023-03-20T06:08:45.503Z,7.68
2023-03-20T06:11:30.143Z,7.94
2023-03-20T06:14:14.074Z,7.75
2023-03-20T06:17:02.522Z,7.92
2023-03-20T06:19:47.870Z,7.95
2023-03-20T06:22:32.545Z,8.28
2023-03-20T06:25:16.696Z,8.04
2023-03-20T06:28:02.102Z,7.63
2023-03-20T06:30:47.605Z,7.99
2023-03-20T06:33:38.281Z,8.31
2023-03-20T06:36:22.195Z,8.57
2023-03-20T06:39:11.093Z,7.56
2023-03-20T06:41:56.027Z,8.33
2023-03-20T06:44:41.957Z,8.74
2023-03-20T06:47:58.223Z,8.31
2023-03-20T06:50:43.957Z,8.11
2023-03-20T06:53:32.270Z,6.99
2023-03-20T06:56:32.519Z,7.32
2023-03-20T06:59:17.167Z,7.86
2023-03-20T07:02:01.736Z,8.36
2023-03-20T07:04:45.946Z,8.72
2023-03-20T07:07:31.955Z,8.56
2023-03-20T07:10:16.044Z,9.00
2023-03-20T07:13:05.533Z,9.46
2023-03-20T07:16:03.448Z,9.27
2023-03-20T07:18:53.584Z,8.58
2023-03-20T07:21:38.084Z,9.13
2023-03-20T07:24:24.148Z,9.08
2023-03-20T07:27:08.263Z,8.77
2023-03-20T07:29:52.610Z,9.27
2023-03-20T07:32:37.915Z,9.54
2023-03-20T07:35:22.338Z,9.68
2023-03-20T07:38:06.576Z,9.46
2023-03-20T07:40:56.696Z,9.42
2023-03-20T07:43:40.758Z,9.48
2023-03-20T07:46:48.183Z,9.45
2023-03-20T07:49:33.008Z,9.68
2023-03-20T07:52:18.324Z,9.91
2023-03-20T07:55:02.276Z,9.75
2023-03-20T07:57:49.755Z,9.92
2023-03-20T08:00:34.912Z,9.88
2023-03-20T08:03:19.175Z,9.98
2023-03-20T08:06:04.324Z,10.54
2023-03-20T08:08:52.035Z,10.42
2023-03-20T08:11:36.098Z,10.06
2023-03-20T08:14:21.563Z,10.65
2023-03-20T08:17:14.511Z,10.57
2023-03-20T08:20:00.000Z,10.97
2023-03-20T08:22:46.010Z,11.44
2023-03-20T08:25:33.628Z,10.60
2023-03-20T08:28:18.317Z,10.64
2023-03-20T08:31:04.210Z,10.39
2023-03-20T08:33:48.868Z,11.79
2023-03-20T08:36:32.892Z,11.93
2023-03-20T08:39:17.097Z,11.22
2023-03-20T08:42:01.409Z,11.29
2023-03-20T08:44:46.406Z,11.28
2023-03-20T08:47:31.797Z,10.98
2023-03-20T08:50:16.411Z,11.77
2023-03-20T08:53:01.358Z,11.33
2023-03-20T08:55:49.397Z,10.44
2023-03-20T08:58:33.521Z,10.43
2023-03-20T09:01:17.605Z,11.81
2023-03-20T09:04:03.632Z,12.34
2023-03-20T09:06:47.671Z,11.91
2023-03-20T09:09:32.601Z,12.86
2023-03-20T09:12:17.001Z,13.53
2023-03-20T09:15:01.474Z,13.46
2023-03-20T09:17:47.274Z,13.49
2023-03-20T09:20:33.042Z,12.78
2023-03-20T09:23:17.658Z,12.09
2023-03-20T09:26:01.621Z,12.76
2023-03-20T09:28:45.672Z,14.02
2023-03-20T09:31:29.898Z,13.59
2023-03-20T09:34:14.077Z,13.34
2023-03-20T09:36:59.474Z,12.48
2023-03-20T09:39:43.511Z,11.81
2023-03-20T09:42:39.624Z,11.50
2023-03-20T09:45:36.121Z,11.47
2023-03-20T09:48:27.399Z,12.14
2023-03-20T09:51:21.240Z,11.51
2023-03-20T09:54:12.316Z,11.29
2023-03-20T09:56:58.191Z,10.92
2023-03-20T09:59:42.544Z,10.46
2023-03-20T10:02:38.232Z,10.45
2023-03-20T10:05:26.316Z,10.49
2023-03-20T10:08:17.067Z,11.24
2023-03-20T10:11:16.352Z,11.21
2023-03-20T10:14:12.409Z,11.44
2023-03-20T10:17:10.985Z,11.58
2023-03-20T10:19:59.980Z,11.66
2023-03-20T10:22:48.838Z,11.33
2023-03-20T10:25:35.253Z,11.66
2023-03-20T10:28:26.254Z,11.46
2023-03-20T10:31:26.781Z,11.47
2023-03-20T10:34:25.426Z,12.13
2023-03-20T10:37:25.530Z,11.36
2023-03-20T10:40:25.005Z,12.16
2023-03-20T10:43:17.301Z,12.32
2023-03-20T10:46:08.251Z,12.73
2023-03-20T10:48:58.546Z,12.52
2023-03-20T10:51:48.144Z,11.59
2023-03-20T10:54:35.166Z,11.58
2023-03-20T10:57:23.455Z,12.38
2023-03-20T11:00:13.341Z,12.29
2023-03-20T11:02:58.582Z,12.44
2023-03-20T11:05:42.586Z,11.76
2023-03-20T11:08:32.010Z,12.01
2023-03-20T11:11:22.587Z,12.77
2023-03-20T11:14:18.781Z,12.87
2023-03-20T11:17:04.366Z,13.40
2023-03-20T11:19:52.887Z,13.70
2023-03-20T11:22:39.157Z,13.58
2023-03-20T11:25:31.290Z,13.49
2023-03-20T11:28:26.971Z,13.79
2023-03-20T11:31:19.041Z,14.36
2023-03-20T11:34:14.092Z,14.63
2023-03-20T11:37:16.675Z,14.55
2023-03-20T11:40:06.804Z,14.15
2023-03-20T11:42:55.604Z,14.51
2023-03-20T11:45:41.400Z,14.62
2023-03-20T11:48:27.254Z,14.57
2023-03-20T11:51:15.607Z,14.91
2023-03-20T11:54:04.334Z,14.67
2023-03-20T11:56:57.001Z,14.90
2023-03-20T11:59:41.563Z,14.57
2023-03-20T12:02:27.224Z,14.81
2023-03-20T12:05:30.457Z,14.31
2023-03-20T12:08:19.840Z,14.08
2023-03-20T12:11:17.926Z,13.53
2023-03-20T12:14:04.755Z,13.67
2023-03-20T12:16:51.234Z,13.40
2023-03-20T12:19:36.690Z,13.23
2023-03-20T12:22:25.519Z,13.43
2023-03-20T12:25:21.576Z,13.68
2023-03-20T12:28:13.798Z,13.36
2023-03-20T12:31:11.269Z,12.69
2023-03-20T12:34:02.433Z,12.46
2023-03-20T12:36:48.363Z,12.65
2023-03-20T12:39:36.621Z,12.16
2023-03-20T12:42:32.750Z,12.60
2023-03-20T12:45:22.186Z,12.63
2023-03-20T12:48:22.662Z,12.28
2023-03-20T12:51:17.796Z,12.65
2023-03-20T12:54:16.626Z,12.71
2023-03-20T12:57:08.140Z,12.87
2023-03-20T13:00:22.523Z,12.61
2023-03-20T13:03:29.761Z,12.45
2023-03-20T13:06:19.714Z,13.15
2023-03-20T13:09:31.332Z,13.47
2023-03-20T13:12:28.365Z,12.86
2023-03-20T13:15:24.678Z,13.05
2023-03-20T13:18:17.416Z,13.04
2023-03-20T13:21:09.065Z,12.34
2023-03-20T13:24:02.021Z,12.45
2023-03-20T13:26:52.986Z,12.49
2023-03-20T13:29:48.566Z,11.78
2023-03-20T13:32:45.246Z,11.01
2023-03-20T13:35:39.692Z,10.40
2023-03-20T13:38:26.216Z,11.02
2023-03-20T13:41:11.884Z,11.90
2023-03-20T13:44:01.387Z,12.22
2023-03-20T13:46:50.683Z,12.33
2023-03-20T13:49:38.896Z,12.70
2023-03-20T13:52:26.907Z,12.52
2023-03-20T13:55:23.741Z,12.57
2023-03-20T13:58:23.148Z,12.29
2023-03-20T14:01:17.965Z,11.81
2023-03-20T14:04:04.181Z,11.48
2023-03-20T14:06:54.760Z,10.95
2023-03-20T14:09:39.548Z,11.74
2023-03-20T14:12:26.823Z,12.18
2023-03-20T14:15:13.886Z,12.51
2023-03-20T14:17:57.990Z,12.11
2023-03-20T14:20:43.326Z,11.59
2023-03-20T14:23:35.844Z,11.89
2023-03-20T14:26:24.269Z,11.07
2023-03-20T14:29:32.102Z,11.55
2023-03-20T14:32:33.821Z,11.56
2023-03-20T14:35:27.686Z,11.77
2023-03-20T14:38:22.262Z,11.33
2023-03-20T14:41:17.034Z,11.77
2023-03-20T14:44:17.650Z,10.97
2023-03-20T14:47:11.437Z,11.21
2023-03-20T14:49:59.900Z,11.68
2023-03-20T14:52:54.235Z,10.50
2023-03-20T14:55:59.937Z,11.13
2023-03-20T14:58:54.788Z,10.54
2023-03-20T15:01:54.742Z,9.68
2023-03-20T15:04:40.800Z,10.12
2023-03-20T15:07:27.933Z,9.98
2023-03-20T15:10:12.543Z,10.59
2023-03-20T15:12:58.241Z,10.88
2023-03-20T15:15:54.591Z,10.70
2023-03-20T15:18:41.220Z,9.82
2023-03-20T15:21:31.832Z,10.37
2023-03-20T15:24:21.650Z,10.57
2023-03-20T15:27:06.471Z,10.53
2023-03-20T15:29:53.627Z,10.33
2023-03-20T15:32:39.367Z,10.06
2023-03-20T15:35:27.223Z,9.82
2023-03-20T15:38:16.282Z,10.18
2023-03-20T15:41:00.445Z,9.87
2023-03-20T15:43:44.532Z,9.94
2023-03-20T15:46:28.689Z,10.03
2023-03-20T15:49:20.137Z,10.27
2023-03-20T15:52:08.388Z,10.50
2023-03-20T15:54:52.782Z,10.28
2023-03-20T15:57:39.809Z,10.43
2023-03-20T16:00:30.149Z,10.27
2023-03-20T16:03:19.382Z,9.63
2023-03-20T16:06:09.570Z,9.90
2023-03-20T16:09:02.287Z,9.29
2023-03-20T16:11:48.739Z,9.20
2023-03-20T16:14:35.217Z,9.50
2023-03-20T16:17:20.582Z,9.94
2023-03-20T16:20:05.407Z,9.63
2023-03-20T16:22:52.531Z,9.62
2023-03-20T16:25:38.419Z,9.73
2023-03-20T16:28:22.551Z,9.86
2023-03-20T16:31:11.063Z,9.90
2023-03-20T16:33:55.389Z,9.71
2023-03-20T16:36:40.094Z,9.89
2023-03-20T16:39:27.621Z,9.78
2023-03-20T16:42:17.261Z,9.46
2023-03-20T16:45:01.208Z,9.76
2023-03-20T16:47:49.250Z,9.83
2023-03-20T16:50:38.194Z,9.35
2023-03-20T16:53:23.668Z,9.59
2023-03-20T16:56:13.337Z,9.69
2023-03-20T16:58:58.014Z,9.74
2023-03-20T17:01:44.888Z,9.47
2023-03-20T17:04:34.874Z,9.81
2023-03-20T17:07:25.718Z,9.42
2023-03-20T17:10:21.766Z,9.57
2023-03-20T17:13:07.773Z,9.45
2023-03-20T17:15:51.798Z,9.69
2023-03-20T17:18:37.542Z,9.61
2023-03-20T17:21:21.625Z,9.97
2023-03-20T17:24:06.377Z,9.93
2023-03-20T17:26:54.896Z,9.73
2023-03-20T17:29:40.691Z,9.85
2023-03-20T17:32:24.868Z,9.70
2023-03-20T17:35:09.826Z,9.83
2023-03-20T17:37:53.960Z,9.85
2023-03-20T17:40:38.532Z,9.80
2023-03-20T17:43:22.901Z,9.63
2023-03-20T17:46:08.926Z,9.87
2023-03-20T17:48:57.489Z,9.83
2023-03-20T17:51:41.706Z,10.02
2023-03-20T17:54:25.785Z,9.58
2023-03-20T17:57:20.248Z,9.62
2023-03-20T18:00:06.782Z,9.73
2023-03-20T18:02:53.607Z,9.61
2023-03-20T18:05:39.636Z,9.79
2023-03-20T18:08:24.010Z,9.85
2023-03-20T18:11:10.153Z,9.85
2023-03-20T18:13:54.194Z,9.47
2023-03-20T18:16:38.231Z,9.49
2023-03-20T18:19:28.505Z,9.55
2023-03-20T18:22:12.750Z,9.79
2023-03-20T18:24:56.763Z,9.88
2023-03-20T18:27:40.926Z,9.56
2023-03-20T18:30:28.046Z,10.14
2023-03-20T18:33:12.030Z,9.83
2023-03-20T18:35:57.397Z,9.78
2023-03-20T18:38:41.349Z,9.81
2023-03-20T18:41:25.832Z,9.60
2023-03-20T18:44:10.090Z,9.75
2023-03-20T18:46:54.472Z,9.66
2023-03-20T18:49:38.915Z,9.57
2023-03-20T18:52:24.641Z,9.77
2023-03-20T18:55:09.564Z,9.86
2023-03-20T18:57:54.158Z,9.69
2023-03-20T19:00:41.127Z,9.65
2023-03-20T19:03:25.982Z,9.63
2023-03-20T19:06:15.089Z,9.88
2023-03-20T19:09:04.169Z,10.06
2023-03-20T19:11:48.284Z,9.80
2023-03-20T19:14:32.554Z,9.92
2023-03-20T19:17:16.924Z,9.87
2023-03-20T19:20:00.974Z,9.88
2023-03-20T19:22:45.455Z,10.00
2023-03-20T19:25:32.249Z,9.88
2023-03-20T19:28:28.810Z,9.80
2023-03-20T19:31:19.230Z,9.36
2023-03-20T19:34:03.687Z,9.50
2023-03-20T19:36:49.306Z,9.31
2023-03-20T19:39:33.413Z,9.22
2023-03-20T19:42:49.654Z,9.26
2023-03-20T19:45:23.209Z,9.33
2023-03-20T19:48:15.540Z,9.50
2023-03-20T19:51:01.508Z,9.59
2023-03-20T19:53:46.230Z,9.45
2023-03-20T19:56:30.472Z,9.67
2023-03-20T19:59:17.028Z,9.59
2023-03-20T20:02:01.706Z,9.34
2023-03-20T20:04:45.949Z,9.53
2023-03-20T20:08:09.197Z,9.33
2023-03-20T20:10:36.277Z,9.55
2023-03-20T20:13:22.152Z,9.16
2023-03-20T20:16:08.016Z,9.07
2023-03-20T20:18:52.168Z,9.11
2023-03-20T20:22:19.511Z,9.19
2023-03-20T20:24:41.714Z,9.47
2023-03-20T20:27:26.496Z,9.65
2023-03-20T20:30:13.868Z,9.87
2023-03-20T20:33:03.467Z,9.54
2023-03-20T20:36:21.236Z,9.67
2023-03-20T20:38:54.460Z,9.92
2023-03-20T20:41:38.695Z,9.69
2023-03-20T20:44:22.837Z,9.83
2023-03-20T20:47:07.217Z,9.87
2023-03-20T20:49:53.010Z,9.67
2023-03-20T20:52:39.162Z,9.75
2023-03-20T20:55:25.999Z,9.60
2023-03-20T20:58:10.190Z,9.13
2023-03-20T21:00:55.576Z,9.50
2023-03-20T21:03:40.144Z,9.67
2023-03-20T21:06:50.593Z,9.43
2023-03-20T21:09:29.642Z,9.29
2023-03-20T21:12:30.576Z,9.43
2023-03-20T21:15:17.927Z,9.47
2023-03-20T21:18:02.079Z,9.20
2023-03-20T21:20:46.296Z,9.50
2023-03-20T21:23:32.097Z,9.73
2023-03-20T21:26:16.514Z,9.75
2023-03-20T21:29:00.490Z,9.69
2023-03-20T21:31:44.577Z,9.41
2023-03-20T21:34:29.167Z,9.60
2023-03-20T21:38:17.900Z,9.64
2023-03-20T21:40:22.059Z,9.67
2023-03-20T21:43:06.106Z,9.41
2023-03-20T21:52:54.552Z,9.31
2023-03-20T21:55:52.328Z,9.00
2023-03-20T21:58:48.859Z,9.13
2023-03-20T22:01:49.488Z,8.85
2023-03-20T22:05:16.284Z,8.88
2023-03-20T22:14:30.933Z,8.69
2023-03-20T22:17:40.566Z,8.86
2023-03-20T22:20:29.808Z,8.44
2023-03-20T22:42:06.821Z,8.56
2023-03-20T22:44:59.059Z,8.27
2023-03-20T22:47:30.693Z,8.53
2023-03-20T22:50:14.647Z,8.36
2023-03-20T22:52:58.608Z,8.28
2023-03-20T22:55:45.162Z,8.50
2023-03-20T22:58:29.202Z,8.41
2023-03-20T23:01:14.581Z,8.33
2023-03-20T23:03:58.678Z,8.37
2023-03-20T23:06:42.734Z,8.21
2023-03-20T23:09:26.781Z,8.21
2023-03-20T23:12:11.123Z,8.52
2023-03-20T23:14:56.034Z,8.30
2023-03-20T23:17:41.509Z,8.66
2023-03-20T23:20:25.683Z,8.68
2023-03-20T23:23:10.620Z,9.06
2023-03-20T23:26:03.929Z,9.22
2023-03-20T23:28:49.139Z,9.33
2023-03-20T23:31:33.451Z,9.19
2023-03-20T23:34:18.891Z,9.25
2023-03-20T23:37:02.768Z,9.51
2023-03-20T23:39:46.672Z,9.09
2023-03-20T23:42:31.127Z,9.23
2023-03-20T23:45:20.371Z,9.27
2023-03-20T23:48:05.525Z,9.47
2023-03-20T23:50:53.564Z,9.54
2023-03-20T23:53:37.764Z,9.57
2023-03-20T23:56:22.019Z,9.31
2023-03-20T23:59:18.735Z,9.16
